• Join FlightAware (Why Join?)
  • Login
  • US Flag 
02:15AM EDT


 

Airport Tracker/Info


-or-


 

Live Flight TrackerFlight Track Log ✈ AMF1026 ✈ 19-Jun-2013 ✈ KALB - KCVG

Flight Track Log - Related Links

Times and Time Zones

All times are in EDT time to prevent confusion due to time zone crossing. See the AMF1026 flight status page for this flight to view local times or setup timezone preferences in your user account.

Time Position Orientation Groundspeed Altitude Reporting Facility
EDT Latitude Longitude Course Direction KTS MPH feet Rate Location/Type
08:22PM 42.7653 -73.8061 325° Northwest 157 181 1,000  Level Boston Center
08:23PM 42.8269 -73.8642 325° Northwest 198 228 3,400 1,500 Climbing Boston Center
08:25PM 42.8639 -73.9217 311° West 189 217 5,100 1,320 Climbing Boston Center
08:26PM 42.8378 -73.9917 243° Southwest 162 186 6,400 1,260 Climbing Boston Center
08:27PM 42.7994 -74.0558 231° Southwest 181 208 7,700 1,320 Climbing Boston Center
08:28PM 42.7589 -74.1256 232° Southwest 214 246 9,100 1,200 Climbing Boston Center
08:29PM 42.7433 -74.1928 253° West 213 245 10,200 1,200 Climbing Boston Center
08:30PM 42.7317 -74.2744 259° West 208 239 11,600 1,200 Climbing Boston Center
08:31PM 42.7222 -74.3422 259° West 203 234 12,700 1,200 Climbing Boston Center
08:32PM 42.7042 -74.4178 252° West 198 228 14,000 1,200 Climbing Boston Center
08:33PM 42.6864 -74.4794 249° West 198 228 15,100 960 Climbing Boston Center
08:34PM 42.6664 -74.5494 249° West 198 228 16,000 420 Climbing Boston Center
08:35PM 42.6403 -74.6133 241° Southwest 198 228 16,000  Level Boston Center
08:36PM 42.6092 -74.6997 244° Southwest 224 258 16,000  Level Boston Center
08:37PM 42.5869 -74.7722 247° West 236 272 16,000  Level Boston Center
08:38PM 42.5622 -74.8531 247° West 236 272 16,000  Level Boston Center
08:39PM 42.5397 -74.9339 249° West 236 272 16,000  Level Boston Center
08:40PM 42.5233 -75.0150 255° West 231 266 16,000  Level Boston Center
08:42PM 42.4872 -75.1683 252° West 221 254 16,000  Level New York Center
08:43PM 42.4614 -75.2450 245° Southwest 226 260 16,000  Level New York Center
08:44PM 42.4294 -75.3189 240° Southwest 232 267 16,000  Level New York Center
08:45PM 42.4075 -75.4014 250° West 232 267 16,000  Level New York Center
08:46PM 42.3794 -75.4781 244° Southwest 232 267 16,000  Level New York Center
08:47PM 42.3494 -75.5544 242° Southwest 232 267 16,000  Level New York Center
08:48PM 42.3194 -75.6253 240° Southwest 232 267 16,000  Level New York Center
08:49PM 42.2892 -75.7042 243° Southwest 232 267 16,000  Level New York Center
08:50PM 42.2611 -75.7806 244° Southwest 232 267 16,000  Level New York Center
08:51PM 42.2350 -75.8569 245° Southwest 232 267 16,000  Level New York Center
08:52PM 42.2108 -75.9364 248° West 237 273 16,000  Level New York Center
08:53PM 42.1908 -76.0131 251° West 232 267 16,000  Level New York Center
08:54PM 42.1725 -76.0928 253° West 227 261 16,000  Level New York Center
08:55PM 42.1461 -76.1717 246° West 227 261 16,000  Level New York Center
08:56PM 42.1219 -76.2481 247° West 227 261 16,000  Level New York Center
08:57PM 42.0969 -76.3353 249° West 227 261 16,000  Level New York Center
08:59PM 42.0519 -76.4936 249° West 227 261 16,000  Level New York Center
09:00PM 42.0317 -76.5700 250° West 227 261 16,000  Level New York Center
09:01PM 42.0069 -76.6489 247° West 227 261 16,000  Level New York Center
09:02PM 41.9844 -76.7250 248° West 227 261 16,000  Level New York Center
09:03PM 41.9578 -76.8006 245° Southwest 227 261 16,000  Level New York Center
09:04PM 41.9278 -76.8933 247° West 229 264 16,000  Level Cleveland Center
09:05PM 41.8947 -76.9650 238° Southwest 229 264 16,000  Level Cleveland Center
09:06PM 41.8636 -77.0392 241° Southwest 229 264 16,000  Level Cleveland Center
09:07PM 41.8344 -77.1106 241° Southwest 229 264 16,000  Level Cleveland Center
09:08PM 41.8033 -77.1844 241° Southwest 229 264 16,000  Level Cleveland Center
09:09PM 41.7722 -77.2614 242° Southwest 234 269 16,000  Level Cleveland Center
09:10PM 41.7431 -77.3325 241° Southwest 234 269 16,000  Level Cleveland Center
09:11PM 41.7161 -77.4117 246° West 229 264 16,000  Level Cleveland Center
09:12PM 41.6911 -77.4853 246° West 229 264 16,000  Level Cleveland Center
09:13PM 41.6636 -77.5561 243° Southwest 229 264 16,000  Level Cleveland Center
09:14PM 41.6342 -77.6269 241° Southwest 229 264 16,000  Level Cleveland Center
09:15PM 41.6028 -77.7033 241° Southwest 229 264 16,000  Level Cleveland Center
09:16PM 41.5714 -77.7769 240° Southwest 234 269 16,000  Level Cleveland Center
09:17PM 41.5458 -77.8503 245° Southwest 228 262 16,000  Level Cleveland Center
09:18PM 41.5208 -77.9400 250° West 228 262 16,000  Level Cleveland Center
09:19PM 41.4997 -78.0158 250° West 228 262 16,000  Level Cleveland Center
09:20PM 41.4744 -78.0944 247° West 233 268 16,000  Level Cleveland Center
09:21PM 41.4531 -78.1672 249° West 233 268 16,000  Level Cleveland Center
09:22PM 41.4297 -78.2456 248° West 233 268 16,000  Level Cleveland Center
09:23PM 41.4083 -78.3211 249° West 233 268 16,000  Level Cleveland Center
09:24PM 41.3847 -78.3994 248° West 233 268 16,000  Level Cleveland Center
09:25PM 41.3611 -78.4694 246° West 233 268 16,000  Level Cleveland Center
09:26PM 41.3375 -78.5478 248° West 233 268 16,000  Level Cleveland Center
09:27PM 41.3117 -78.6231 245° Southwest 233 268 16,000  Level Cleveland Center
09:28PM 41.2878 -78.6986 247° West 233 268 16,000  Level Cleveland Center
09:29PM 41.2600 -78.7739 244° Southwest 233 268 16,000  Level Cleveland Center
09:30PM 41.2319 -78.8492 244° Southwest 233 268 16,000  Level Cleveland Center
09:31PM 41.2039 -78.9244 244° Southwest 233 268 16,000  Level Cleveland Center
09:32PM 41.1756 -78.9969 243° Southwest 233 268 16,000  Level Cleveland Center
09:33PM 41.1453 -79.0722 242° Southwest 233 268 16,000  Level Cleveland Center
09:34PM 41.1214 -79.1472 247° West 233 268 16,000  Level Cleveland Center
09:35PM 41.0994 -79.2275 250° West 233 268 16,000  Level Cleveland Center
09:36PM 41.0731 -79.3025 245° Southwest 233 268 16,000  Level Cleveland Center
09:37PM 41.0531 -79.3825 252° West 233 268 16,000  Level Cleveland Center
09:38PM 41.0311 -79.4628 250° West 233 268 16,000  Level Cleveland Center
09:39PM 41.0131 -79.5403 253° West 233 268 16,000  Level Cleveland Center
09:40PM 40.9908 -79.6203 250° West 233 268 16,000  Level Cleveland Center
09:41PM 40.9706 -79.6975 251° West 233 268 16,000  Level Cleveland Center
09:42PM 40.9483 -79.7778 250° West 233 268 16,000  Level Cleveland Center
09:43PM 40.9278 -79.8547 251° West 233 268 16,000  Level Cleveland Center
09:44PM 40.9033 -79.9347 248° West 233 268 16,000  Level Cleveland Center
09:45PM 40.8831 -80.0119 251° West 233 268 16,000  Level Cleveland Center
09:46PM 40.8561 -80.0972 247° West 233 268 16,000  Level Cleveland Center
09:47PM 40.8356 -80.1742 251° West 233 268 16,000  Level Cleveland Center
09:48PM 40.8108 -80.2539 248° West 233 268 16,000  Level Cleveland Center
09:49PM 40.7839 -80.3308 245° Southwest 233 268 16,000  Level Cleveland Center
09:50PM 40.7653 -80.4158 254° West 233 268 16,000  Level Cleveland Center
09:51PM 40.7508 -80.4872 255° West 233 268 16,000  Level Cleveland Center
09:52PM 40.7258 -80.5639 247° West 233 268 16,000  Level Cleveland Center
09:53PM 40.6758 -80.6214 221° Southwest 238 274 16,000  Level Cleveland Center
09:54PM 40.6111 -80.6569 203° Southwest 238 274 16,000  Level Cleveland Center
09:55PM 40.5486 -80.7061 211° Southwest 238 274 16,000  Level Cleveland Center
09:56PM 40.5006 -80.7686 225° Southwest 243 280 16,000  Level Cleveland Center
09:57PM 40.4631 -80.8397 235° Southwest 243 280 16,000  Level Cleveland Center
09:58PM 40.4253 -80.9103 235° Southwest 243 280 16,000  Level Cleveland Center
09:59PM 40.3875 -80.9864 237° Southwest 243 280 16,000  Level Cleveland Center
10:00PM 40.3517 -81.0572 236° Southwest 243 280 16,000  Level Cleveland Center
10:01PM 40.3181 -81.1331 240° Southwest 243 280 16,000  Level Cleveland Center
10:02PM 40.2867 -81.1983 238° Southwest 238 274 16,000  Level Indianapolis Center
10:03PM 40.2508 -81.2736 238° Southwest 239 275 16,000  Level Indianapolis Center
10:04PM 40.2175 -81.3508 241° Southwest 241 277 16,000  Level Indianapolis Center
10:05PM 40.1881 -81.4289 244° Southwest 239 275 16,000  Level Indianapolis Center
10:06PM 40.1567 -81.5064 242° Southwest 240 276 16,000  Level Indianapolis Center
10:07PM 40.1264 -81.5836 243° Southwest 238 274 16,000  Level Indianapolis Center
10:08PM 40.0967 -81.6611 243° Southwest 236 272 16,000  Level Indianapolis Center
10:09PM 40.0658 -81.7392 243° Southwest 239 275 16,000  Level Indianapolis Center
10:10PM 40.0342 -81.8231 244° Southwest 236 272 16,000  Level Indianapolis Center
10:11PM 40.0044 -81.9017 244° Southwest 239 275 16,000  Level Indianapolis Center
10:12PM 39.9758 -81.9792 244° Southwest 236 272 16,000  Level Indianapolis Center
10:13PM 39.9458 -82.0569 243° Southwest 237 273 16,000  Level Indianapolis Center
10:14PM 39.9175 -82.1356 245° Southwest 238 274 16,000  Level Indianapolis Center
10:15PM 39.8897 -82.2147 245° Southwest 238 274 16,000  Level Indianapolis Center
10:16PM 39.8619 -82.2931 245° Southwest 236 272 16,000  Level Indianapolis Center
10:17PM 39.8342 -82.3711 245° Southwest 234 269 16,000  Level Indianapolis Center
10:18PM 39.8069 -82.4506 246° West 236 272 16,000  Level Indianapolis Center
10:19PM 39.7800 -82.5303 246° West 239 275 16,000  Level Indianapolis Center
10:20PM 39.7533 -82.6100 247° West 238 274 16,000  Level Indianapolis Center
10:21PM 39.7261 -82.6886 246° West 237 273 16,000  Level Indianapolis Center
10:22PM 39.6997 -82.7678 247° West 237 273 16,000  Level Indianapolis Center
10:23PM 39.6731 -82.8464 246° West 237 273 16,000  Level Indianapolis Center
10:24PM 39.6469 -82.9253 247° West 237 273 16,000  Level Indianapolis Center
10:25PM 39.6211 -83.0039 247° West 235 270 16,000  Level Indianapolis Center
10:26PM 39.5939 -83.0825 246° West 235 270 16,000  Level Indianapolis Center
10:27PM 39.5664 -83.1606 245° Southwest 236 272 16,000  Level Indianapolis Center
10:28PM 39.5403 -83.2397 247° West 237 273 16,000 -600 Level Indianapolis Center
10:29PM 39.5133 -83.3239 247° West 247 284 14,900 -1,140 Descending Indianapolis Center
10:30PM 39.4833 -83.4183 248° West 275 316 13,700 -1,140 Descending Indianapolis Center
10:31PM 39.4578 -83.5122 251° West 275 316 12,600 -1,140 Descending Indianapolis Center
10:32PM 39.4336 -83.6072 252° West 273 314 11,400 -840 Descending Indianapolis Center
10:33PM 39.4081 -83.6969 250° West 265 305 11,000 -240 Descending Indianapolis Center
10:34PM 39.3789 -83.7789 245° Southwest 250 288 11,000  Level Indianapolis Center
10:35PM 39.3456 -83.8572 241° Southwest 246 283 11,000  Level Indianapolis Center
10:36PM 39.3114 -83.9350 240° Southwest 246 283 11,100  Climbing Indianapolis Center
10:37PM 39.2792 -84.0136 242° Southwest 245 282 11,100 -660 Level Indianapolis Center
10:38PM 39.2422 -84.1092 243° Southwest 251 289 9,800 -1,260 Descending Indianapolis Center
10:39PM 39.2081 -84.1925 242° Southwest 258 297 8,600 -1,200 Descending Indianapolis Center
10:40PM 39.1750 -84.2733 242° Southwest 254 292 7,400 -1,200 Descending Indianapolis Center
10:41PM 39.1417 -84.3517 241° Southwest 250 288 6,200 -1,200 Descending Indianapolis Center
10:42PM 39.1089 -84.4306 242° Southwest 249 287 5,000 -960 Descending Indianapolis Center
10:43PM 39.0608 -84.4736 215° Southwest 223 257 4,300 -840 Descending Indianapolis Center
10:45PM 38.9833 -84.5333 211° Southwest 190 219 2,900 -780 Descending Cincinnati TRACON
10:46PM 38.9667 -84.6000 252° West 151 174 2,200 -420 Descending Cincinnati TRACON
10:47PM 38.9667 -84.6500 270° West 137 158 2,000 -300 Descending Cincinnati TRACON
10:48PM 38.9833 -84.6667 322° Northwest 138 159 1,700 -480 Descending Cincinnati TRACON
10:49PM 39.0333 -84.6667 360° North 126 145 1,100 -600 Descending Cincinnati TRACON